Terminal Aerodrome Forecast
Issued by NWS Memphis, TN

Home | Current Version | Previous Version | Text Only | Print | Product List | Glossary On
Versions: 1 2 3 4 5 6 7 8 9 10 11 12 13 14 15
175
FTUS44 KMEG 241726
TAFJBR
TAF
KJBR 241726Z 2418/2518 13009KT P6SM FEW250
     FM241900 15012G18KT P6SM FEW035 SCT250
     FM250000 17014G20KT P6SM FEW250 WS020/21050KT
     FM250800 21012KT P6SM BKN015
     FM251700 24012KT P6SM FEW025 SCT250=

USA.gov is the U.S. government's official web portal to all federal, state and local government web resources and services.